Time;durP1;ratioP1;P1;durP2;ratioP2;P2;SDS_P1;SDS_P2;PMS_P1;PMS_P2;Temp;Humidity;BMP_temperature;BMP_pressure;BME280_temperature;BME280_humidity;BME280_pressure;Samples;Min_cycle;Max_cycle;Signal;HPM_P1;HPM_P2
2022/03/29 00:03:05;;;;;;;50.08;24.13;;;;;;;6.68;71.43;100486.00;8659947;33;20696;-72
2022/03/29 00:08:08;;;;;;;50.10;25.40;;;;;;;6.70;71.39;100481.44;8666650;33;20768;-71
2022/03/29 00:13:12;;;;;;;48.63;25.23;;;;;;;6.74;71.36;100473.09;8664994;33;20489;-72
2022/03/29 00:18:17;;;;;;;52.85;25.45;;;;;;;6.77;71.63;100458.72;8662483;33;20481;-72
2022/03/29 00:23:20;;;;;;;46.70;24.63;;;;;;;6.73;71.52;100454.53;8665313;33;20193;-72
2022/03/29 00:28:23;;;;;;;44.80;23.27;;;;;;;6.47;72.07;100461.50;8661201;33;20304;-72
2022/03/29 00:33:27;;;;;;;45.90;23.10;;;;;;;6.52;72.15;100459.41;8659610;33;20192;-72
2022/03/29 00:38:31;;;;;;;49.00;24.75;;;;;;;6.51;72.42;100452.38;8664250;33;20858;-72
2022/03/29 00:43:34;;;;;;;48.38;23.75;;;;;;;6.62;72.15;100445.38;8660778;33;20855;-72
2022/03/29 00:48:39;;;;;;;48.47;24.45;;;;;;;6.69;72.31;100445.00;8664708;33;20147;-72
2022/03/29 00:53:42;;;;;;;49.22;24.40;;;;;;;6.76;72.47;100439.16;8660536;33;20226;-71
2022/03/29 00:58:46;;;;;;;47.45;23.05;;;;;;;6.86;71.48;100428.75;8657515;33;20412;-72
2022/03/29 01:03:50;;;;;;;48.67;24.35;;;;;;;6.87;71.32;100421.59;8658457;33;20649;-72
2022/03/29 01:08:53;;;;;;;40.50;22.33;;;;;;;6.89;71.30;100409.91;8663141;33;21034;-72
2022/03/29 01:13:57;;;;;;;44.83;21.80;;;;;;;6.98;71.21;100416.44;8664653;33;20451;-71
2022/03/29 01:19:04;;;;;;;44.83;22.02;;;;;;;7.03;70.94;100420.53;8663789;33;20311;-73
2022/03/29 01:24:11;;;;;;;38.58;20.48;;;;;;;6.94;70.25;100407.78;8664415;33;20476;-72
2022/03/29 01:29:15;;;;;;;43.22;21.23;;;;;;;7.00;70.12;100409.22;8659237;33;20437;-72
2022/03/29 01:34:20;;;;;;;41.88;19.80;;;;;;;6.98;69.85;100403.94;8657796;33;20422;-71
2022/03/29 01:39:24;;;;;;;42.00;20.50;;;;;;;6.91;69.95;100396.44;8656340;33;20251;-71
2022/03/29 01:44:28;;;;;;;43.88;20.80;;;;;;;6.86;69.75;100399.41;8656108;33;20420;-71
2022/03/29 01:49:32;;;;;;;37.35;19.15;;;;;;;6.89;69.81;100398.38;8655159;33;20986;-70
2022/03/29 01:54:36;;;;;;;40.30;20.02;;;;;;;6.91;69.77;100391.97;8654974;33;20308;-72
2022/03/29 02:05:03;;;;;;;39.55;20.13;;;;;;;6.81;69.96;100391.66;8661478;33;20233;-72
2022/03/29 02:10:09;;;;;;;38.70;19.38;;;;;;;6.63;70.03;100391.03;8660489;33;21170;-71
2022/03/29 02:15:12;;;;;;;42.42;20.95;;;;;;;6.53;70.26;100389.94;8659520;33;20134;-73
2022/03/29 02:20:16;;;;;;;38.05;17.80;;;;;;;6.56;69.71;100387.06;8654702;33;20863;-72
2022/03/29 02:25:21;;;;;;;38.75;19.40;;;;;;;6.70;70.01;100382.66;8655955;33;20483;-73
2022/03/29 02:30:24;;;;;;;36.25;19.17;;;;;;;6.77;69.81;100382.13;8660942;33;20178;-72
2022/03/29 02:35:27;;;;;;;38.78;18.90;;;;;;;6.77;69.48;100375.94;8675853;33;20554;-71
2022/03/29 02:40:31;;;;;;;40.13;18.75;;;;;;;6.78;69.35;100370.50;8667422;33;20408;-70
2022/03/29 02:45:35;;;;;;;35.13;17.88;;;;;;;6.84;69.25;100369.25;8665519;33;20505;-71
2022/03/29 02:50:38;;;;;;;38.22;19.30;;;;;;;6.84;69.24;100361.25;8662749;33;20197;-70
2022/03/29 02:55:43;;;;;;;37.05;18.30;;;;;;;6.79;69.10;100366.88;8657842;33;20246;-72
2022/03/29 03:00:46;;;;;;;33.53;17.75;;;;;;;6.74;69.04;100360.97;8631449;33;20208;-72
2022/03/29 03:05:49;;;;;;;34.80;18.45;;;;;;;6.69;69.06;100356.91;8657215;33;20460;-72
2022/03/29 03:10:54;;;;;;;33.25;17.75;;;;;;;6.66;69.01;100347.28;8657506;33;20478;-72
2022/03/29 03:15:57;;;;;;;36.00;17.58;;;;;;;6.68;69.03;100325.84;8658146;33;20213;-72
2022/03/29 03:21:00;;;;;;;34.33;17.08;;;;;;;6.70;69.17;100322.09;8660301;33;20190;-71
2022/03/29 03:26:04;;;;;;;34.22;18.17;;;;;;;6.74;69.05;100315.59;8665656;33;20230;-72
2022/03/29 03:31:07;;;;;;;37.40;18.05;;;;;;;6.76;69.06;100318.19;8668221;33;20907;-72
2022/03/29 03:36:11;;;;;;;36.83;18.02;;;;;;;6.77;69.17;100312.72;8666192;33;20165;-72
2022/03/29 03:41:15;;;;;;;35.15;17.90;;;;;;;6.75;69.12;100321.81;8663122;33;20146;-72
2022/03/29 03:46:18;;;;;;;38.58;19.08;;;;;;;6.73;69.38;100315.72;8661376;33;21043;-72
2022/03/29 03:51:22;;;;;;;36.53;19.30;;;;;;;6.76;69.34;100315.50;8658088;33;21178;-72
2022/03/29 03:56:26;;;;;;;39.42;19.48;;;;;;;6.69;69.15;100315.06;8654801;33;20485;-73
2022/03/29 04:01:29;;;;;;;41.45;18.85;;;;;;;6.60;69.41;100311.16;8654768;33;20557;-71
2022/03/29 04:06:33;;;;;;;37.65;18.55;;;;;;;6.57;69.55;100310.53;8652902;33;20233;-72
2022/03/29 04:11:37;;;;;;;42.70;19.65;;;;;;;6.54;69.72;100303.56;8653249;33;20693;-70
2022/03/29 04:16:41;;;;;;;38.28;18.20;;;;;;;6.52;69.39;100299.28;8652531;33;20509;-71
2022/03/29 04:21:44;;;;;;;41.75;18.35;;;;;;;6.48;69.30;100295.97;8627584;33;20670;-71
2022/03/29 04:26:49;;;;;;;34.50;17.88;;;;;;;6.38;69.45;100290.38;8655303;33;20166;-71
2022/03/29 04:31:53;;;;;;;36.10;18.90;;;;;;;6.39;69.80;100277.91;8659968;33;20412;-72
2022/03/29 04:36:58;;;;;;;38.35;19.38;;;;;;;6.47;69.52;100275.56;8661563;33;21051;-72
2022/03/29 04:42:03;;;;;;;38.10;19.08;;;;;;;6.46;69.66;100267.66;8670957;33;20845;-72
2022/03/29 04:47:11;;;;;;;40.22;18.55;;;;;;;6.36;69.53;100262.94;8675794;33;20131;-72
2022/03/29 04:52:14;;;;;;;41.83;21.05;;;;;;;6.38;69.82;100265.50;8675849;33;20410;-72
2022/03/29 04:57:19;;;;;;;41.70;20.60;;;;;;;6.36;69.42;100265.63;8666384;33;20431;-72
2022/03/29 05:02:23;;;;;;;39.67;18.63;;;;;;;6.33;69.52;100278.28;8663411;33;20182;-72
2022/03/29 05:07:28;;;;;;;40.70;19.58;;;;;;;6.31;69.51;100274.88;8664016;33;20623;-72
2022/03/29 05:12:39;;;;;;;40.85;19.50;;;;;;;6.26;69.25;100285.84;8656964;33;20804;-70
2022/03/29 05:17:43;;;;;;;45.10;21.02;;;;;;;6.16;69.21;100277.56;8656098;33;20465;-72
2022/03/29 05:22:49;;;;;;;45.08;22.35;;;;;;;5.98;69.46;100265.44;8658209;33;20486;-73
2022/03/29 05:27:57;;;;;;;43.83;20.10;;;;;;;5.71;70.40;100281.34;8659192;33;20163;-71
2022/03/29 05:33:00;;;;;;;38.05;18.88;;;;;;;5.80;70.44;100285.25;8655970;33;20422;-71
2022/03/29 05:38:04;;;;;;;40.10;20.35;;;;;;;6.04;70.13;100273.03;8654684;33;20422;-73
2022/03/29 05:43:13;;;;;;;41.10;19.25;;;;;;;6.13;69.91;100279.56;8655412;33;20424;-71
2022/03/29 05:53:36;;;;;;;49.55;23.30;;;;;;;6.17;69.25;100283.75;8656005;33;20223;-71
2022/03/29 05:58:40;;;;;;;49.20;22.00;;;;;;;6.16;69.11;100288.22;8653434;33;20983;-72
2022/03/29 06:03:43;;;;;;;41.90;21.38;;;;;;;6.26;68.75;100285.00;8651525;33;20923;-71
2022/03/29 06:08:47;;;;;;;40.67;19.08;;;;;;;6.35;68.44;100281.72;8649713;33;20453;-71
2022/03/29 06:13:52;;;;;;;42.90;19.00;;;;;;;6.27;67.95;100286.69;8648057;33;21921;-71
2022/03/29 06:18:55;;;;;;;41.13;20.27;;;;;;;6.28;68.08;100291.94;8655081;33;20815;-71
2022/03/29 06:23:58;;;;;;;46.85;20.77;;;;;;;6.42;67.91;100287.50;8659714;33;20162;-73
2022/03/29 06:29:02;;;;;;;43.50;20.88;;;;;;;6.51;67.60;100286.91;8669205;33;20156;-73
2022/03/29 06:34:06;;;;;;;41.92;20.52;;;;;;;6.45;67.13;100287.31;8659225;33;20439;-73
2022/03/29 06:39:11;;;;;;;46.33;22.35;;;;;;;6.47;67.12;100280.91;8653458;33;20465;-73
2022/03/29 06:44:17;;;;;;;39.88;20.58;;;;;;;6.57;66.95;100274.00;8653383;33;20405;-72
2022/03/29 06:49:20;;;;;;;42.33;18.80;;;;;;;6.53;66.38;100264.50;8653616;33;20150;-71
2022/03/29 06:54:23;;;;;;;46.80;21.30;;;;;;;6.38;66.63;100269.03;8651123;33;20154;-71
2022/03/29 06:59:27;;;;;;;42.78;21.27;;;;;;;6.57;66.33;100266.00;8654514;33;20699;-71
2022/03/29 07:04:49;;;;;;;37.30;17.98;;;;;;;6.80;66.13;100260.94;8660076;33;20227;-71
2022/03/29 07:15:14;;;;;;;34.47;16.85;;;;;;;7.44;64.28;100261.91;8661464;33;20461;-73
2022/03/29 07:20:19;;;;;;;41.28;19.33;;;;;;;7.50;63.66;100255.28;8664145;33;20273;-71
2022/03/29 07:25:23;;;;;;;38.45;17.48;;;;;;;7.59;63.48;100259.97;8669821;33;20883;-73
2022/03/29 07:30:27;;;;;;;32.50;16.92;;;;;;;7.82;62.93;100252.16;8682597;33;22003;-72
2022/03/29 07:35:31;;;;;;;37.78;20.92;;;;;;;7.89;62.47;100246.22;8673462;33;21679;-73
2022/03/29 07:40:35;;;;;;;34.22;17.92;;;;;;;7.85;61.98;100249.25;8667788;33;21078;-73
2022/03/29 07:45:40;;;;;;;39.80;19.35;;;;;;;7.68;62.34;100245.97;8664079;33;20450;-72
2022/03/29 07:50:44;;;;;;;41.88;20.27;;;;;;;7.52;62.76;100252.50;8665295;33;20426;-72
2022/03/29 07:55:47;;;;;;;38.95;18.33;;;;;;;7.54;63.25;100261.25;8662567;33;20175;-72
2022/03/29 08:00:54;;;;;;;41.20;18.60;;;;;;;7.57;62.34;100269.94;8660496;33;20198;-72
2022/03/29 08:05:58;;;;;;;39.58;19.30;;;;;;;7.55;62.49;100265.66;8656065;33;20416;-73
2022/03/29 08:11:01;;;;;;;39.03;19.02;;;;;;;7.40;62.57;100251.53;8658055;33;20472;-71
2022/03/29 08:16:06;;;;;;;43.95;19.48;;;;;;;7.68;62.34;100243.28;8667004;33;20929;-72
2022/03/29 08:26:26;;;;;;;38.47;19.50;;;;;;;7.81;61.47;100253.94;8656072;33;20410;-72
2022/03/29 08:31:31;;;;;;;42.25;18.08;;;;;;;7.84;61.27;100237.69;8657588;33;20421;-72
2022/03/29 08:36:36;;;;;;;33.72;18.15;;;;;;;8.06;60.74;100246.81;8651751;33;20437;-72
2022/03/29 08:41:46;;;;;;;38.05;18.90;;;;;;;8.13;59.67;100242.75;8630566;33;20139;-72
2022/03/29 08:46:51;;;;;;;39.85;19.92;;;;;;;8.17;59.78;100261.16;8650257;33;20179;-72
2022/03/29 08:51:54;;;;;;;35.92;17.90;;;;;;;8.23;59.79;100257.19;8648770;32;20521;-72
2022/03/29 08:56:57;;;;;;;37.47;17.85;;;;;;;8.06;58.81;100239.66;8648987;33;20488;-70
2022/03/29 09:02:10;;;;;;;38.55;19.27;;;;;;;8.09;59.64;100238.56;8650684;33;20417;-72
2022/03/29 09:07:13;;;;;;;35.30;18.00;;;;;;;8.05;60.19;100232.59;8650575;33;20482;-73
2022/03/29 09:12:19;;;;;;;37.15;18.20;;;;;;;8.18;59.95;100241.44;8655048;33;20418;-72
2022/03/29 09:17:30;;;;;;;35.60;19.75;;;;;;;8.50;58.96;100232.91;8659621;33;20489;-72
2022/03/29 09:22:39;;;;;;;35.28;17.88;;;;;;;8.91;57.94;100239.59;8651491;33;20433;-73
2022/03/29 09:27:55;;;;;;;33.95;17.95;;;;;;;9.19;56.43;100233.00;8652054;33;20557;-72
2022/03/29 09:33:04;;;;;;;36.17;18.40;;;;;;;9.46;55.30;100221.06;8648670;33;20166;-73
2022/03/29 09:38:23;;;;;;;31.08;17.27;;;;;;;9.91;53.67;100221.09;8647814;33;21605;-72
2022/03/29 09:43:29;;;;;;;36.00;18.67;;;;;;;10.00;53.39;100214.97;8646400;33;20146;-72
2022/03/29 09:48:37;;;;;;;33.72;17.75;;;;;;;10.21;52.39;100208.84;8630280;33;21844;-72
2022/03/29 09:53:43;;;;;;;37.58;18.40;;;;;;;10.74;51.30;100208.88;8671162;33;21026;-72
2022/03/29 09:58:46;;;;;;;33.85;17.75;;;;;;;10.89;49.54;100209.38;8656352;33;20150;-72
2022/03/29 10:03:53;;;;;;;35.10;18.08;;;;;;;10.80;50.57;100209.19;8656592;33;20958;-70
2022/03/29 10:14:22;;;;;;;33.47;18.20;;;;;;;10.72;51.62;100192.88;8655997;33;20411;-71
2022/03/29 10:19:27;;;;;;;40.10;19.45;;;;;;;10.66;50.75;100193.38;8659217;33;20411;-71
2022/03/29 10:24:31;;;;;;;39.15;19.27;;;;;;;10.86;50.70;100194.41;8660840;33;20443;-70
2022/03/29 10:29:35;;;;;;;35.30;19.00;;;;;;;11.62;50.27;100186.06;8634745;33;20189;-70
2022/03/29 10:34:42;;;;;;;40.35;19.75;;;;;;;11.60;49.12;100180.81;8659748;33;20459;-70
2022/03/29 10:39:52;;;;;;;38.20;19.95;;;;;;;10.55;50.61;100174.66;8660421;33;20488;-70
2022/03/29 10:45:15;;;;;;;40.97;20.92;;;;;;;10.48;51.17;100170.78;8634919;33;20451;-70
2022/03/29 10:50:57;;;;;;;38.90;21.35;;;;;;;11.72;47.62;100168.09;8638405;33;20196;-72
2022/03/29 10:56:20;;;;;;;38.85;20.67;;;;;;;12.68;46.10;100154.91;8661751;33;20196;-72
2022/03/29 11:01:23;;;;;;;38.05;19.38;;;;;;;12.47;46.13;100146.97;8670299;33;20163;-72
2022/03/29 11:06:28;;;;;;;40.58;20.13;;;;;;;13.47;43.97;100133.84;8674560;33;20437;-72
2022/03/29 11:11:40;;;;;;;36.03;18.95;;;;;;;14.20;43.86;100130.25;8674780;33;20186;-70
2022/03/29 11:16:43;;;;;;;36.28;20.20;;;;;;;14.56;41.12;100124.84;8673688;33;20418;-71
2022/03/29 11:21:48;;;;;;;36.47;19.50;;;;;;;14.24;42.46;100126.25;8674194;33;20130;-72
2022/03/29 11:26:58;;;;;;;36.28;19.38;;;;;;;15.69;39.88;100104.06;8667792;33;20422;-71
2022/03/29 11:32:01;;;;;;;37.80;20.55;;;;;;;16.07;39.71;100099.94;8661309;33;20149;-73
2022/03/29 11:37:06;;;;;;;33.30;19.63;;;;;;;16.13;38.50;100087.59;8672107;33;20182;-72
2022/03/29 11:42:09;;;;;;;38.05;20.80;;;;;;;15.65;39.74;100081.88;8660979;33;20419;-72
2022/03/29 11:47:12;;;;;;;33.75;19.60;;;;;;;16.29;38.64;100076.78;8664421;33;21081;-73
2022/03/29 11:52:18;;;;;;;33.22;19.45;;;;;;;16.66;36.88;100069.13;8663683;33;20430;-72
2022/03/29 11:57:24;;;;;;;36.95;19.67;;;;;;;16.84;38.09;100063.50;8660429;33;20683;-73
2022/03/29 12:02:28;;;;;;;34.92;18.80;;;;;;;16.74;37.19;100052.84;8660758;33;20483;-73
2022/03/29 12:07:40;;;;;;;33.15;19.77;;;;;;;15.69;38.58;100055.34;8656821;33;20894;-73
2022/03/29 12:12:51;;;;;;;34.00;18.77;;;;;;;15.86;40.46;100043.50;8654952;33;20187;-72
2022/03/29 12:18:40;;;;;;;34.08;18.92;;;;;;;16.70;38.53;100025.22;8652375;33;20159;-72
2022/03/29 12:23:27;;;;;;;32.38;18.63;;;;;;;17.09;37.60;100020.88;8649129;33;20268;-73
2022/03/29 12:28:32;;;;;;;33.13;17.48;;;;;;;17.83;35.43;100014.03;8647942;27;20479;-73
2022/03/29 12:33:36;;;;;;;32.72;18.10;;;;;;;17.82;34.90;99998.75;8555711;33;20242;-73
2022/03/29 12:38:46;;;;;;;35.25;19.60;;;;;;;16.82;36.97;100012.16;8548690;33;20509;-73
2022/03/29 12:43:58;;;;;;;32.72;17.63;;;;;;;17.87;35.51;99993.63;8542323;33;20253;-74
2022/03/29 12:49:01;;;;;;;32.13;17.63;;;;;;;18.14;36.05;99991.41;8541723;33;20491;-75
2022/03/29 12:54:08;;;;;;;28.73;18.00;;;;;;;17.77;36.60;99974.03;8538585;33;20437;-75
2022/03/29 12:59:32;;;;;;;34.08;18.75;;;;;;;17.89;36.02;99964.41;8538593;33;20417;-75
2022/03/29 13:04:37;;;;;;;30.92;17.35;;;;;;;18.74;34.38;99956.97;8554974;33;20424;-76
2022/03/29 13:09:59;;;;;;;32.15;19.63;;;;;;;18.89;33.34;99951.53;8535102;33;20961;-75
2022/03/29 13:15:43;;;;;;;33.95;19.02;;;;;;;19.53;32.46;99948.97;8503400;33;20484;-76
2022/03/29 13:20:47;;;;;;;30.92;18.13;;;;;;;19.90;32.39;99939.69;8521224;33;20943;-75
2022/03/29 13:25:51;;;;;;;33.13;19.00;;;;;;;19.82;32.00;99941.72;8539468;33;20195;-74
2022/03/29 13:30:55;;;;;;;33.53;18.70;;;;;;;19.11;33.31;99934.25;8519204;33;20596;-74
2022/03/29 13:35:58;;;;;;;32.28;19.20;;;;;;;18.93;33.55;99917.50;8544113;33;21364;-73
2022/03/29 13:41:03;;;;;;;31.02;17.88;;;;;;;19.48;32.47;99910.56;8547655;33;21142;-74
2022/03/29 13:46:09;;;;;;;34.33;18.85;;;;;;;19.15;31.58;99894.72;8548023;33;20571;-74
2022/03/29 13:51:34;;;;;;;31.42;18.08;;;;;;;19.82;31.97;99889.94;8605120;33;20198;-74
2022/03/29 13:56:39;;;;;;;34.63;19.25;;;;;;;20.47;30.43;99886.03;8598914;33;20532;-75
2022/03/29 14:01:43;;;;;;;32.25;18.58;;;;;;;21.26;29.69;99878.41;8602253;33;20155;-75
2022/03/29 14:06:46;;;;;;;32.92;18.10;;;;;;;21.65;28.66;99870.25;8610199;33;20885;-74
2022/03/29 14:11:50;;;;;;;29.15;18.13;;;;;;;21.51;29.78;99859.53;8600780;33;20552;-74
2022/03/29 14:16:53;;;;;;;26.95;16.05;;;;;;;20.54;30.05;99853.31;8596565;33;20422;-74
2022/03/29 14:21:58;;;;;;;30.65;17.50;;;;;;;20.24;31.10;99856.31;8599847;33;21107;-75
2022/03/29 14:27:03;;;;;;;28.83;17.50;;;;;;;19.95;30.85;99851.91;8600280;33;20688;-75
2022/03/29 14:32:09;;;;;;;27.70;16.88;;;;;;;19.38;31.58;99848.25;8602218;33;20161;-74
2022/03/29 14:37:12;;;;;;;30.67;17.25;;;;;;;19.23;32.35;99836.59;8599954;33;21905;-74
2022/03/29 14:42:17;;;;;;;28.38;17.50;;;;;;;19.40;31.22;99837.16;8615019;33;20900;-74
2022/03/29 14:47:20;;;;;;;28.17;17.05;;;;;;;19.05;31.19;99831.59;8614050;33;20542;-74
2022/03/29 14:52:24;;;;;;;27.45;15.55;;;;;;;19.89;29.41;99822.72;8614507;33;20505;-75
2022/03/29 14:57:28;;;;;;;25.45;15.45;;;;;;;19.71;30.05;99820.47;8617568;33;20285;-73
2022/03/29 15:02:31;;;;;;;23.80;15.45;;;;;;;18.62;30.71;99812.44;8623548;33;20185;-75
2022/03/29 15:07:35;;;;;;;26.63;16.42;;;;;;;17.52;32.36;99804.97;8623330;33;20468;-73
2022/03/29 15:12:40;;;;;;;27.30;15.15;;;;;;;16.57;32.68;99797.19;8622299;33;20590;-74
2022/03/29 15:17:43;;;;;;;30.52;15.95;;;;;;;16.81;34.42;99801.59;8619618;33;20144;-73
2022/03/29 15:22:46;;;;;;;30.63;16.27;;;;;;;17.41;32.62;99787.25;8622257;33;20179;-74
2022/03/29 15:27:51;;;;;;;28.38;15.10;;;;;;;17.24;32.58;99781.13;8597111;33;20189;-74
2022/03/29 15:32:58;;;;;;;29.17;15.15;;;;;;;17.21;32.89;99781.50;8587340;33;20526;-73
2022/03/29 15:38:01;;;;;;;23.42;14.27;;;;;;;17.33;32.94;99771.03;8613642;33;20261;-73
2022/03/29 15:43:07;;;;;;;25.63;15.32;;;;;;;17.20;32.80;99766.25;8613752;33;20982;-73
2022/03/29 15:48:10;;;;;;;26.10;14.18;;;;;;;16.91;32.80;99766.94;8606556;33;20587;-72
2022/03/29 15:53:15;;;;;;;26.35;14.35;;;;;;;16.48;33.79;99763.84;8605167;33;21111;-72
2022/03/29 15:58:22;;;;;;;27.80;15.05;;;;;;;15.10;35.52;99759.56;8605207;33;21113;-72
2022/03/29 16:03:45;;;;;;;24.65;14.20;;;;;;;15.85;35.87;99753.91;8543512;33;20164;-73
2022/03/29 16:08:48;;;;;;;27.52;15.15;;;;;;;15.62;35.14;99753.81;8544280;33;21573;-72
2022/03/29 16:13:52;;;;;;;26.13;14.85;;;;;;;15.40;36.97;99749.94;8543849;33;20190;-72
2022/03/29 16:18:55;;;;;;;27.90;15.25;;;;;;;15.17;36.11;99744.38;8535799;33;20571;-72
2022/03/29 16:23:59;;;;;;;30.48;16.25;;;;;;;14.74;36.74;99743.66;8572344;33;20484;-74
2022/03/29 16:29:05;;;;;;;30.23;15.15;;;;;;;14.20;38.50;99744.00;8574863;33;20187;-73
2022/03/29 16:34:10;;;;;;;23.73;14.02;;;;;;;13.61;38.97;99740.34;8570724;33;20457;-72
2022/03/29 16:39:14;;;;;;;27.02;14.57;;;;;;;13.21;40.08;99739.03;8573915;33;20399;-72
2022/03/29 16:44:21;;;;;;;29.55;14.95;;;;;;;13.22;40.25;99735.34;8573200;33;20403;-72
2022/03/29 16:49:24;;;;;;;29.40;16.02;;;;;;;12.50;41.91;99735.38;8565465;33;20624;-72
2022/03/29 16:54:27;;;;;;;28.77;15.50;;;;;;;12.78;41.40;99730.78;8529727;33;20414;-73
2022/03/29 16:59:33;;;;;;;33.20;15.68;;;;;;;12.77;42.04;99730.91;8544781;33;20182;-73
2022/03/29 17:04:36;;;;;;;28.25;15.18;;;;;;;12.60;42.44;99729.91;8521879;33;20132;-73
2022/03/29 17:09:39;;;;;;;27.10;15.35;;;;;;;12.21;42.69;99732.84;8519842;33;20609;-73
2022/03/29 17:14:43;;;;;;;27.98;15.45;;;;;;;11.84;43.36;99735.56;8545352;33;21010;-73
2022/03/29 17:19:48;;;;;;;27.23;14.25;;;;;;;11.58;44.17;99735.41;8545497;33;21019;-73
2022/03/29 17:24:51;;;;;;;27.23;14.07;;;;;;;11.22;45.21;99729.84;8546672;33;20179;-74
2022/03/29 17:29:55;;;;;;;30.67;16.60;;;;;;;11.02;45.89;99737.88;8546272;33;20510;-73
2022/03/29 17:34:59;;;;;;;29.27;14.98;;;;;;;10.83;46.89;99728.00;8513983;33;20572;-73
2022/03/29 17:40:02;;;;;;;30.65;14.95;;;;;;;10.62;46.90;99743.41;8557311;33;20144;-72
2022/03/29 17:45:08;;;;;;;26.25;13.70;;;;;;;10.50;46.73;99755.25;8540927;33;20419;-72
2022/03/29 17:50:12;;;;;;;26.25;13.77;;;;;;;10.32;46.97;99747.03;8545971;33;20617;-72
2022/03/29 17:55:15;;;;;;;26.35;13.70;;;;;;;10.14;47.20;99739.63;8553284;33;20155;-73
2022/03/29 18:00:21;;;;;;;27.25;13.60;;;;;;;9.95;47.50;99744.94;8575065;33;20147;-73
2022/03/29 18:05:24;;;;;;;26.98;13.25;;;;;;;9.84;47.90;99737.81;8590395;33;20414;-73
2022/03/29 18:10:28;;;;;;;24.00;13.25;;;;;;;9.69;48.34;99745.38;8606389;33;20430;-73
2022/03/29 18:15:38;;;;;;;24.85;13.82;;;;;;;9.58;48.83;99741.97;8586563;33;21621;-73
2022/03/29 18:20:41;;;;;;;24.15;13.38;;;;;;;9.48;48.90;99740.06;8607034;33;20144;-73
2022/03/29 18:25:45;;;;;;;29.77;14.35;;;;;;;9.33;49.18;99733.34;8592989;33;20604;-73
2022/03/29 18:30:49;;;;;;;28.73;12.88;;;;;;;9.23;49.44;99737.81;8594227;33;20907;-72
2022/03/29 18:35:54;;;;;;;27.58;13.65;;;;;;;9.15;50.01;99737.59;8591018;33;20148;-73
2022/03/29 18:40:58;;;;;;;26.05;13.88;;;;;;;9.09;49.75;99740.81;8589963;33;20644;-73
2022/03/29 18:46:03;;;;;;;25.08;13.65;;;;;;;9.02;50.13;99743.16;8588744;33;20227;-74
2022/03/29 18:51:27;;;;;;;30.30;13.80;;;;;;;8.86;50.55;99748.97;8574263;33;20583;-73
2022/03/29 18:56:30;;;;;;;27.02;13.85;;;;;;;8.75;51.21;99749.00;8599699;33;20225;-72
2022/03/29 19:01:34;;;;;;;25.70;14.55;;;;;;;8.66;51.24;99742.59;8589513;33;20428;-74
2022/03/29 19:06:38;;;;;;;31.77;14.43;;;;;;;8.47;52.14;99745.94;8588654;33;20281;-74
2022/03/29 19:11:42;;;;;;;29.65;12.15;;;;;;;8.34;52.95;99737.19;8602584;33;20840;-74
2022/03/29 19:16:48;;;;;;;28.38;13.60;;;;;;;8.24;53.73;99749.63;8610870;33;20415;-74
2022/03/29 19:21:51;;;;;;;28.67;11.95;;;;;;;8.08;54.02;99756.19;8607197;33;20147;-74
2022/03/29 19:26:55;;;;;;;22.48;10.77;;;;;;;7.88;55.30;99751.63;8608122;33;21284;-74
2022/03/29 19:32:00;;;;;;;25.02;11.93;;;;;;;7.91;55.27;99754.03;8611118;33;20143;-74
2022/03/29 19:37:05;;;;;;;22.63;11.60;;;;;;;7.80;55.92;99743.34;8606525;33;20181;-74
2022/03/29 19:42:10;;;;;;;29.98;12.02;;;;;;;7.70;56.23;99752.09;8581925;33;20201;-74
2022/03/29 19:47:17;;;;;;;27.30;12.63;;;;;;;7.50;57.04;99748.31;8604928;33;20847;-74
2022/03/29 19:52:21;;;;;;;23.52;11.63;;;;;;;7.49;57.86;99751.97;8607109;33;20452;-73
2022/03/29 19:57:25;;;;;;;23.77;11.68;;;;;;;7.39;58.10;99758.16;8605493;33;20488;-73
2022/03/29 20:02:30;;;;;;;25.40;10.95;;;;;;;7.25;58.72;99753.88;8575679;33;21020;-73
2022/03/29 20:14:40;;;;;;;27.67;11.45;;;;;;;7.08;59.19;99749.84;8578808;33;20266;-72
2022/03/29 20:19:45;;;;;;;20.65;9.90;;;;;;;6.96;59.21;99756.94;8589667;33;20216;-72
2022/03/29 20:24:48;;;;;;;24.38;10.35;;;;;;;6.93;59.50;99742.97;8580503;33;20244;-73
2022/03/29 20:29:51;;;;;;;19.77;9.73;;;;;;;6.84;59.27;99728.50;8599445;33;20404;-72
2022/03/29 20:34:56;;;;;;;24.73;10.15;;;;;;;6.70;59.63;99732.19;8577317;33;20446;-72
2022/03/29 20:40:00;;;;;;;24.38;11.25;;;;;;;6.57;59.92;99734.06;8573053;33;20591;-73
2022/03/29 20:45:04;;;;;;;24.65;11.00;;;;;;;6.53;59.78;99732.63;8568748;33;20420;-72
2022/03/29 20:50:10;;;;;;;23.40;11.07;;;;;;;6.47;60.43;99720.56;8573575;33;20976;-72
2022/03/29 20:55:13;;;;;;;19.17;10.02;;;;;;;6.39;60.13;99712.31;8579674;33;20209;-73
2022/03/29 21:00:17;;;;;;;19.63;10.75;;;;;;;6.31;60.24;99718.19;8578055;33;20578;-72
2022/03/29 21:05:22;;;;;;;24.85;10.90;;;;;;;6.18;60.31;99712.06;8602802;33;20414;-73
2022/03/29 21:10:25;;;;;;;22.90;9.88;;;;;;;6.15;60.41;99720.28;8602361;33;20127;-72
2022/03/29 21:15:30;;;;;;;20.63;9.82;;;;;;;6.03;60.47;99721.16;8600934;33;20140;-72
2022/03/29 21:20:37;;;;;;;23.25;9.82;;;;;;;5.97;60.71;99716.28;8602075;33;20988;-72
2022/03/29 21:25:40;;;;;;;26.88;11.65;;;;;;;5.84;61.19;99718.97;8603066;33;20136;-73
2022/03/29 21:30:44;;;;;;;24.75;10.18;;;;;;;5.83;60.99;99709.28;8603281;33;20419;-72
2022/03/29 21:35:49;;;;;;;23.38;10.70;;;;;;;5.78;61.18;99709.63;8601963;33;20535;-72
2022/03/29 21:40:52;;;;;;;27.58;12.98;;;;;;;5.77;61.11;99709.75;8599595;33;20877;-73
2022/03/29 21:45:55;;;;;;;27.42;10.48;;;;;;;5.68;61.17;99711.25;8570822;33;20445;-72
2022/03/29 21:51:00;;;;;;;26.15;11.20;;;;;;;5.64;61.44;99720.41;8563302;33;20431;-72
2022/03/29 21:56:22;;;;;;;23.88;10.80;;;;;;;5.49;61.35;99715.22;8555350;33;20892;-72
2022/03/29 22:01:44;;;;;;;22.92;10.75;;;;;;;5.38;61.75;99708.94;8569484;33;20473;-72
2022/03/29 22:07:08;;;;;;;24.92;11.18;;;;;;;5.06;63.12;99715.53;8574256;33;20424;-72
2022/03/29 22:12:13;;;;;;;23.30;11.20;;;;;;;5.22;63.07;99717.16;8558692;33;20227;-72
2022/03/29 22:17:16;;;;;;;20.35;10.20;;;;;;;5.17;62.42;99713.94;8591931;33;20435;-72
2022/03/29 22:22:22;;;;;;;19.65;10.70;;;;;;;5.05;62.38;99708.50;8575661;33;20290;-72
2022/03/29 22:27:25;;;;;;;22.08;11.10;;;;;;;5.06;62.49;99709.34;8602307;33;20402;-72
2022/03/29 22:32:28;;;;;;;21.00;10.45;;;;;;;4.98;62.69;99706.34;8602962;33;20472;-72
2022/03/29 22:37:33;;;;;;;19.00;9.55;;;;;;;4.96;62.51;99698.44;8601825;33;20398;-72
2022/03/29 22:42:36;;;;;;;19.38;10.02;;;;;;;4.95;62.57;99703.88;8605007;33;20461;-74
2022/03/29 22:47:39;;;;;;;21.92;10.60;;;;;;;4.86;62.48;99691.22;8603624;33;22513;-74
2022/03/29 22:52:45;;;;;;;21.67;9.35;;;;;;;4.86;62.49;99691.22;8605120;33;20929;-73
2022/03/29 22:57:49;;;;;;;15.85;9.10;;;;;;;4.75;62.50;99682.16;8604704;33;20510;-74
2022/03/29 23:02:52;;;;;;;21.00;9.43;;;;;;;4.76;62.70;99673.19;8580172;33;20405;-73
2022/03/29 23:07:57;;;;;;;23.42;9.15;;;;;;;4.76;62.44;99672.34;8611320;33;20591;-74
2022/03/29 23:13:00;;;;;;;17.45;9.38;;;;;;;4.77;62.54;99680.25;8612326;33;20662;-74
2022/03/29 23:18:03;;;;;;;17.13;9.10;;;;;;;4.71;62.59;99669.16;8581242;33;20276;-73
2022/03/29 23:23:08;;;;;;;19.10;8.35;;;;;;;4.65;62.66;99667.75;8576566;33;20432;-74
2022/03/29 23:28:12;;;;;;;19.35;8.38;;;;;;;4.56;62.76;99666.59;8612669;33;20233;-73
2022/03/29 23:33:15;;;;;;;18.33;9.50;;;;;;;4.49;62.95;99656.44;8618750;33;20577;-73
2022/03/29 23:38:19;;;;;;;17.85;9.57;;;;;;;4.38;63.33;99663.34;8612008;33;20505;-73
2022/03/29 23:43:22;;;;;;;15.85;9.05;;;;;;;4.43;63.57;99660.38;8610269;33;20494;-73
2022/03/29 23:48:25;;;;;;;20.75;9.85;;;;;;;4.54;63.22;99651.69;8604470;33;20462;-72
2022/03/29 23:53:31;;;;;;;24.23;9.32;;;;;;;4.60;63.15;99653.91;8579242;33;20433;-72
2022/03/29 23:58:34;;;;;;;18.60;9.55;;;;;;;4.43;62.85;99652.41;8600927;33;20474;-72
